createdAt,value
2023-04-19T00:00:23.946Z,100697.97
2023-04-19T00:05:26.196Z,100702.41
2023-04-19T00:10:28.441Z,100694.97
2023-04-19T00:15:29.951Z,100687.31
2023-04-19T00:20:31.408Z,100687.88
2023-04-19T00:25:34.595Z,100681.09
2023-04-19T00:30:36.297Z,100683.03
2023-04-19T00:35:37.802Z,100667.63
2023-04-19T00:40:39.300Z,100663.56
2023-04-19T00:45:40.748Z,100674.84
2023-04-19T00:50:44.313Z,100669.28
2023-04-19T00:55:45.857Z,100661.19
2023-04-19T01:00:47.332Z,100650.88
2023-04-19T01:05:49.922Z,100644.56
2023-04-19T01:10:51.391Z,100635.41
2023-04-19T01:15:52.886Z,100639.09
2023-04-19T01:20:54.473Z,100632.66
2023-04-19T01:25:56.150Z,100629.19
2023-04-19T01:30:57.673Z,100627.78
2023-04-19T01:35:59.119Z,100620.03
2023-04-19T01:41:00.576Z,100609.56
2023-04-19T01:46:02.014Z,100616.91
2023-04-19T01:51:03.588Z,100611.72
2023-04-19T01:56:05.393Z,100602.84
2023-04-19T02:01:06.841Z,100600.94
2023-04-19T02:06:14.402Z,100604.16
2023-04-19T02:11:15.884Z,100609.16
2023-04-19T02:16:17.323Z,100608.41
2023-04-19T02:21:18.857Z,100604.84
2023-04-19T02:26:20.644Z,100602.22
2023-04-19T02:31:22.157Z,100592.63
2023-04-19T02:36:23.750Z,100600.44
2023-04-19T02:41:25.249Z,100598.97
2023-04-19T02:46:26.771Z,100592.47
2023-04-19T02:51:28.299Z,100591.59
2023-04-19T02:56:29.710Z,100594.50
2023-04-19T03:01:32.351Z,100575.19
2023-04-19T03:06:33.848Z,100575.84
2023-04-19T03:11:35.778Z,100576.69
2023-04-19T03:16:38.467Z,100568.09
2023-04-19T03:21:39.920Z,100565.03
2023-04-19T03:26:41.347Z,100552.06
2023-04-19T03:31:42.916Z,100561.31
2023-04-19T03:36:44.512Z,100548.84
2023-04-19T03:41:45.969Z,100550.75
2023-04-19T03:46:48.772Z,100554.22
2023-04-19T03:51:50.485Z,100546.84
2023-04-19T03:56:51.894Z,100550.97
2023-04-19T04:01:53.367Z,100558.47
2023-04-19T04:06:54.801Z,100556.06
2023-04-19T04:11:56.222Z,100553.88
2023-04-19T04:16:57.644Z,100555.66
2023-04-19T04:21:59.040Z,100562.47
2023-04-19T04:27:00.848Z,100553.63
2023-04-19T04:32:03.222Z,100575.63
2023-04-19T04:37:04.864Z,100574.00
2023-04-19T04:42:08.663Z,100571.59
2023-04-19T04:47:12.826Z,100568.66
2023-04-19T04:52:14.252Z,100570.31
2023-04-19T04:57:15.915Z,100563.78
2023-04-19T05:02:17.409Z,100572.25
2023-04-19T05:07:19.017Z,100570.03
2023-04-19T05:12:20.523Z,100565.66
2023-04-19T05:17:21.994Z,100568.78
2023-04-19T05:22:23.514Z,100560.56
2023-04-19T05:27:24.978Z,100549.63
2023-04-19T05:32:27.506Z,100555.97
2023-04-19T05:37:30.479Z,100547.16
2023-04-19T05:42:32.074Z,100550.00
2023-04-19T05:47:33.751Z,100537.53
2023-04-19T05:52:35.334Z,100537.34
2023-04-19T05:57:36.780Z,100533.09
2023-04-19T06:02:40.748Z,100531.53
2023-04-19T06:07:47.246Z,100531.34
2023-04-19T06:12:55.795Z,100536.13
2023-04-19T06:17:59.350Z,100537.00
2023-04-19T06:23:01.369Z,100540.75
2023-04-19T06:28:03.058Z,100549.69
2023-04-19T06:33:04.609Z,100554.84
2023-04-19T06:38:06.307Z,100539.66
2023-04-19T06:43:07.762Z,100538.97
2023-04-19T06:48:09.304Z,100542.53
2023-04-19T06:53:10.876Z,100539.44
2023-04-19T06:58:12.456Z,100541.22
2023-04-19T07:03:13.941Z,100550.28
2023-04-19T07:08:16.104Z,100551.00
2023-04-19T07:13:17.589Z,100554.09
2023-04-19T07:18:19.390Z,100542.41
2023-04-19T07:23:20.810Z,100535.47
2023-04-19T07:28:22.294Z,100531.97
2023-04-19T07:33:27.861Z,100518.56
2023-04-19T07:38:29.684Z,100519.06
2023-04-19T07:43:31.111Z,100524.31
2023-04-19T07:48:32.546Z,100521.63
2023-04-19T07:53:33.964Z,100516.75
2023-04-19T07:58:36.469Z,100509.63
2023-04-19T08:03:38.241Z,100520.66
2023-04-19T08:08:39.926Z,100517.41
2023-04-19T08:13:42.158Z,100523.75
2023-04-19T08:18:51.525Z,100536.47
2023-04-19T08:23:55.655Z,100514.84
2023-04-19T08:28:57.089Z,100510.09
2023-04-19T08:34:00.202Z,100512.22
2023-04-19T08:39:06.729Z,100513.75
2023-04-19T08:44:12.366Z,100513.25
2023-04-19T08:49:15.241Z,100518.63
2023-04-19T08:54:18.279Z,100523.75
2023-04-19T08:59:20.124Z,100524.56
2023-04-19T09:04:36.563Z,100524.41
2023-04-19T09:09:55.652Z,100515.75
2023-04-19T09:15:04.366Z,100505.09
2023-04-19T09:20:07.188Z,100494.25
2023-04-19T09:30:24.201Z,100498.72
2023-04-19T09:35:48.211Z,100504.81
2023-04-19T09:40:50.386Z,100509.19
2023-04-19T09:45:52.529Z,100507.38
2023-04-19T09:51:00.799Z,100488.75
2023-04-19T09:56:06.287Z,100502.81
2023-04-19T10:01:15.559Z,100495.81
2023-04-19T10:11:27.387Z,100515.81
2023-04-19T10:16:30.654Z,100505.84
2023-04-19T10:21:33.297Z,100509.28
2023-04-19T10:27:03.140Z,100497.59
2023-04-19T10:32:06.192Z,100491.84
2023-04-19T10:37:11.248Z,100481.84
2023-04-19T10:42:13.131Z,100481.28
2023-04-19T10:47:44.621Z,100486.94
2023-04-19T10:52:46.212Z,100487.00
2023-04-19T10:58:06.569Z,100470.31
2023-04-19T11:03:45.282Z,100466.03
2023-04-19T11:08:47.268Z,100475.16
2023-04-19T11:13:48.800Z,100479.13
2023-04-19T11:18:50.237Z,100479.06
2023-04-19T11:24:10.491Z,100473.03
2023-04-19T11:29:12.861Z,100467.69
2023-04-19T11:34:14.717Z,100463.22
2023-04-19T11:39:16.504Z,100475.06
2023-04-19T11:44:22.320Z,100472.94
2023-04-19T11:49:28.908Z,100470.03
2023-04-19T11:54:30.597Z,100482.78
2023-04-19T11:59:34.855Z,100472.59
2023-04-19T12:04:37.722Z,100484.91
2023-04-19T12:09:39.428Z,100473.78
2023-04-19T12:14:52.250Z,100460.53
2023-04-19T12:19:53.703Z,100471.41
2023-04-19T12:24:55.989Z,100474.81
2023-04-19T12:29:57.422Z,100477.59
2023-04-19T12:34:58.850Z,100474.56
2023-04-19T12:40:00.372Z,100470.75
2023-04-19T12:45:01.805Z,100474.19
2023-04-19T12:50:03.814Z,100470.53
2023-04-19T12:55:05.921Z,100471.31
2023-04-19T13:00:10.603Z,100469.56
2023-04-19T13:05:12.979Z,100467.75
2023-04-19T13:10:14.450Z,100475.53
2023-04-19T13:15:15.908Z,100467.56
2023-04-19T13:20:20.221Z,100475.91
2023-04-19T13:25:22.223Z,100468.41
2023-04-19T13:30:23.686Z,100473.78
2023-04-19T13:35:25.196Z,100465.75
2023-04-19T13:40:26.893Z,100473.44
2023-04-19T13:45:28.303Z,100474.50
2023-04-19T13:50:30.082Z,100472.84
2023-04-19T13:55:31.612Z,100475.91
2023-04-19T14:00:33.925Z,100480.91
2023-04-19T14:05:35.913Z,100471.69
2023-04-19T14:10:38.039Z,100469.31
2023-04-19T14:15:40.911Z,100462.09
2023-04-19T14:20:42.361Z,100458.13
2023-04-19T14:25:43.778Z,100461.94
2023-04-19T14:30:45.225Z,100458.69
2023-04-19T14:35:46.733Z,100455.13
2023-04-19T14:40:48.398Z,100464.66
2023-04-19T14:45:50.027Z,100461.94
2023-04-19T14:50:51.835Z,100468.16
2023-04-19T14:55:53.259Z,100458.34
2023-04-19T15:00:54.875Z,100464.56
2023-04-19T15:05:56.336Z,100455.25
2023-04-19T15:10:57.751Z,100457.91
2023-04-19T15:16:01.842Z,100456.28
2023-04-19T15:21:05.153Z,100455.00
2023-04-19T15:26:06.712Z,100452.47
2023-04-19T15:31:08.900Z,100458.84
2023-04-19T15:36:10.370Z,100456.28
2023-04-19T15:41:11.828Z,100469.53
2023-04-19T15:46:14.073Z,100462.66
2023-04-19T15:51:16.104Z,100451.69
2023-04-19T15:56:17.562Z,100459.78
2023-04-19T16:01:19.421Z,100460.41
2023-04-19T16:06:21.797Z,100471.31
2023-04-19T16:11:23.371Z,100462.19
2023-04-19T16:16:27.013Z,100459.97
2023-04-19T16:21:28.783Z,100469.88
2023-04-19T16:26:30.292Z,100479.94
2023-04-19T16:31:31.996Z,100475.53
2023-04-19T16:36:33.451Z,100473.94
2023-04-19T16:41:34.875Z,100477.25
2023-04-19T16:46:36.522Z,100476.47
2023-04-19T16:51:38.273Z,100486.53
2023-04-19T16:56:39.756Z,100490.63
2023-04-19T17:01:41.280Z,100494.44
2023-04-19T17:06:42.722Z,100501.66
2023-04-19T17:11:44.267Z,100495.69
2023-04-19T17:16:46.029Z,100491.75
2023-04-19T17:21:47.461Z,100499.34
2023-04-19T17:26:49.820Z,100501.81
2023-04-19T17:31:51.362Z,100497.84
2023-04-19T17:36:52.847Z,100495.63
2023-04-19T17:41:54.919Z,100507.00
2023-04-19T17:46:57.208Z,100512.94
2023-04-19T17:51:58.835Z,100505.44
2023-04-19T17:57:02.516Z,100516.28
2023-04-19T18:02:04.169Z,100513.97
2023-04-19T18:07:06.087Z,100516.28
2023-04-19T18:12:07.688Z,100525.72
2023-04-19T18:17:09.152Z,100536.94
2023-04-19T18:22:10.579Z,100541.75
2023-04-19T18:27:12.696Z,100541.56
2023-04-19T18:32:14.295Z,100540.72
2023-04-19T18:37:16.934Z,100545.03
2023-04-19T18:42:18.373Z,100550.22
2023-04-19T18:47:20.170Z,100549.16
2023-04-19T18:52:21.622Z,100553.69
2023-04-19T18:57:24.356Z,100546.75
2023-04-19T19:02:29.029Z,100553.22
2023-04-19T19:12:36.062Z,100548.41
2023-04-19T19:17:38.125Z,100552.16
2023-04-19T19:22:40.275Z,100555.06
2023-04-19T19:27:50.135Z,100561.59
2023-04-19T19:32:59.941Z,100555.44
2023-04-19T19:38:01.488Z,100557.19
2023-04-19T19:43:02.977Z,100559.47
2023-04-19T19:48:05.069Z,100560.44
2023-04-19T19:53:06.547Z,100577.84
2023-04-19T20:03:12.743Z,100571.97
2023-04-19T20:08:14.684Z,100574.84
2023-04-19T20:13:17.040Z,100572.75
2023-04-19T20:18:18.562Z,100565.72
2023-04-19T20:23:21.594Z,100578.13
2023-04-19T20:28:23.119Z,100590.03
2023-04-19T20:33:24.559Z,100578.31
2023-04-19T20:38:29.101Z,100573.31
2023-04-19T20:43:30.577Z,100562.56
2023-04-19T20:48:32.237Z,100574.66
2023-04-19T20:53:34.146Z,100579.56
2023-04-19T20:58:37.837Z,100575.22
2023-04-19T21:03:39.469Z,100581.50
2023-04-19T21:08:41.044Z,100586.88
2023-04-19T21:13:42.608Z,100578.91
2023-04-19T21:18:44.044Z,100570.03
2023-04-19T21:23:45.475Z,100574.09
2023-04-19T21:28:47.023Z,100578.81
2023-04-19T21:33:48.472Z,100591.94
2023-04-19T21:38:49.941Z,100583.13
2023-04-19T21:43:51.403Z,100575.81
2023-04-19T21:48:55.554Z,100570.25
2023-04-19T21:53:57.369Z,100571.88
2023-04-19T21:58:58.834Z,100575.72
2023-04-19T22:04:01.863Z,100568.53
2023-04-19T22:09:05.636Z,100585.31
2023-04-19T22:14:07.781Z,100590.91
2023-04-19T22:19:10.065Z,100573.91
2023-04-19T22:24:11.514Z,100576.41
2023-04-19T22:29:12.955Z,100577.91
2023-04-19T22:34:14.406Z,100569.84
2023-04-19T22:39:16.096Z,100567.47
2023-04-19T22:44:17.794Z,100556.72
2023-04-19T22:49:22.085Z,100559.56
2023-04-19T22:54:23.514Z,100558.53
2023-04-19T22:59:25.076Z,100551.44
2023-04-19T23:04:26.951Z,100559.19
2023-04-19T23:09:29.729Z,100559.97
2023-04-19T23:14:31.396Z,100566.16
2023-04-19T23:19:32.832Z,100567.44
2023-04-19T23:24:36.167Z,100559.44
2023-04-19T23:29:37.684Z,100550.59
2023-04-19T23:34:39.116Z,100546.44
2023-04-19T23:39:40.676Z,100546.97
2023-04-19T23:44:43.911Z,100542.34
2023-04-19T23:49:45.664Z,100543.66
2023-04-19T23:54:47.083Z,100536.16
2023-04-19T23:59:48.538Z,100533.47
